createdAt,value
2018-03-18T00:01:52.081Z,90.50
2018-03-18T00:04:21.036Z,90.70
2018-03-18T00:06:49.244Z,90.80
2018-03-18T00:09:17.536Z,91.00
2018-03-18T00:11:45.712Z,91.30
2018-03-18T00:14:13.893Z,90.40
2018-03-18T00:16:42.074Z,91.30
2018-03-18T00:19:10.427Z,90.10
2018-03-18T00:21:39.533Z,90.70
2018-03-18T00:24:10.996Z,90.10
2018-03-18T00:26:39.169Z,89.20
2018-03-18T00:29:07.331Z,91.50
2018-03-18T00:31:35.531Z,91.60
2018-03-18T00:34:12.494Z,90.70
2018-03-18T00:36:42.311Z,90.70
2018-03-18T00:39:10.493Z,90.40
2018-03-18T00:41:38.651Z,89.50
2018-03-18T00:44:09.857Z,89.80
2018-03-18T00:46:38.012Z,90.30
2018-03-18T00:49:06.188Z,89.70
2018-03-18T00:51:46.133Z,88.90
2018-03-18T00:54:14.311Z,88.70
2018-03-18T00:56:42.614Z,89.10
2018-03-18T00:59:10.797Z,88.70
2018-03-18T01:01:38.965Z,90.20
2018-03-18T01:04:10.605Z,89.30
2018-03-18T01:06:38.807Z,89.50
2018-03-18T01:09:32.789Z,89.00
2018-03-18T01:12:00.947Z,89.20
2018-03-18T01:14:29.993Z,90.00
2018-03-18T01:16:58.931Z,90.70
2018-03-18T01:19:27.109Z,90.60
2018-03-18T01:21:55.295Z,90.20
2018-03-18T01:24:23.932Z,90.70
2018-03-18T01:26:52.112Z,90.30
2018-03-18T01:29:21.095Z,91.00
2018-03-18T01:31:49.261Z,90.60
2018-03-18T01:34:18.189Z,90.90
2018-03-18T01:36:46.356Z,90.90
2018-03-18T01:39:14.529Z,90.10
2018-03-18T01:41:42.697Z,90.60
2018-03-18T01:44:10.921Z,91.00
2018-03-18T01:46:39.092Z,90.00
2018-03-18T01:49:07.259Z,88.80
2018-03-18T01:51:35.464Z,88.20
2018-03-18T01:54:16.826Z,86.90
2018-03-18T01:56:44.985Z,87.10
2018-03-18T01:59:36.392Z,87.40
2018-03-18T02:02:04.554Z,87.00
2018-03-18T02:04:32.722Z,89.60
2018-03-18T02:07:00.910Z,87.80
2018-03-18T02:09:29.074Z,88.20
2018-03-18T02:11:57.248Z,87.10
2018-03-18T02:14:25.405Z,87.30
2018-03-18T02:16:53.560Z,88.10
2018-03-18T02:19:21.788Z,88.50
2018-03-18T02:21:49.956Z,86.20
2018-03-18T02:24:18.121Z,87.60
2018-03-18T02:26:46.315Z,87.40
2018-03-18T02:29:14.474Z,85.50
2018-03-18T02:31:42.636Z,86.40
2018-03-18T02:34:10.801Z,85.00
2018-03-18T02:36:38.979Z,83.50
2018-03-18T02:39:07.912Z,84.60
2018-03-18T02:41:36.082Z,83.50
2018-03-18T02:44:23.332Z,83.50
2018-03-18T02:55:42.971Z,83.30
2018-03-18T02:58:24.278Z,80.70
2018-03-18T03:00:53.191Z,83.40
2018-03-18T03:06:27.316Z,83.40
2018-03-18T03:08:55.478Z,83.90
2018-03-18T03:11:24.610Z,83.60
2018-03-18T03:13:53.882Z,83.10
2018-03-18T03:16:22.072Z,83.40
2018-03-18T03:18:50.231Z,80.70
2018-03-18T03:21:18.392Z,79.70
2018-03-18T03:23:57.511Z,78.20
2018-03-18T03:26:29.599Z,80.50
2018-03-18T03:28:57.772Z,80.20
2018-03-18T03:31:25.962Z,80.50
2018-03-18T03:33:58.325Z,79.60
2018-03-18T03:36:27.212Z,78.80
2018-03-18T03:39:02.421Z,77.70
2018-03-18T03:41:30.611Z,78.60
2018-03-18T03:43:59.619Z,79.80
2018-03-18T03:46:27.804Z,79.80
2018-03-18T03:48:55.967Z,80.90
2018-03-18T03:51:24.136Z,82.80
2018-03-18T03:53:52.314Z,81.70
2018-03-18T03:56:20.484Z,78.80
2018-03-18T03:58:48.658Z,78.50
2018-03-18T04:01:16.826Z,80.10
2018-03-18T04:03:45.836Z,81.30
2018-03-18T04:06:14.029Z,81.40
2018-03-18T04:08:42.380Z,79.60
2018-03-18T04:11:10.539Z,78.60
2018-03-18T04:13:39.757Z,75.00
2018-03-18T04:16:07.932Z,74.10
2018-03-18T04:18:36.108Z,75.90
2018-03-18T04:21:04.262Z,75.70
2018-03-18T04:23:55.640Z,73.40
2018-03-18T04:26:23.863Z,74.00
2018-03-18T04:31:56.883Z,75.80
2018-03-18T04:34:25.080Z,71.90
2018-03-18T04:36:55.274Z,73.80
2018-03-18T04:39:23.498Z,74.40
2018-03-18T04:41:51.669Z,73.70
2018-03-18T04:44:19.840Z,76.50
2018-03-18T04:46:48.006Z,74.30
2018-03-18T04:49:16.195Z,73.80
2018-03-18T04:51:44.366Z,75.80
2018-03-18T04:54:12.547Z,73.90
2018-03-18T04:56:41.279Z,74.20
2018-03-18T04:59:09.465Z,73.80
2018-03-18T05:01:38.193Z,68.10
2018-03-18T05:04:23.670Z,73.70
2018-03-18T05:09:50.882Z,70.50
2018-03-18T05:12:27.568Z,73.60
2018-03-18T05:15:15.423Z,74.50
2018-03-18T05:17:43.592Z,75.30
2018-03-18T05:20:36.139Z,74.80
2018-03-18T05:23:10.422Z,74.50
2018-03-18T05:25:38.576Z,74.30
2018-03-18T05:28:27.822Z,73.70
2018-03-18T05:30:55.995Z,76.40
2018-03-18T05:33:39.426Z,75.70
2018-03-18T05:39:02.469Z,69.80
2018-03-18T05:41:30.749Z,75.80
2018-03-18T05:44:00.150Z,76.80
2018-03-18T05:46:29.928Z,72.00
2018-03-18T05:49:00.684Z,71.50
2018-03-18T05:51:31.433Z,72.10
2018-03-18T05:54:13.000Z,72.20
2018-03-18T06:00:24.431Z,72.10
2018-03-18T06:03:24.230Z,69.90
2018-03-18T06:05:54.527Z,71.60
2018-03-18T06:08:34.297Z,73.00
2018-03-18T06:11:03.352Z,73.80
2018-03-18T06:13:39.185Z,73.10
2018-03-18T06:18:41.445Z,76.40
2018-03-18T06:21:09.992Z,72.00
2018-03-18T06:23:40.066Z,68.50
2018-03-18T06:26:31.940Z,70.20
2018-03-18T06:29:02.473Z,73.40
2018-03-18T06:31:32.197Z,73.60
2018-03-18T06:34:02.910Z,72.80
2018-03-18T06:36:31.868Z,74.70
2018-03-18T06:39:03.613Z,74.70
2018-03-18T06:41:31.878Z,77.10
2018-03-18T06:44:04.789Z,72.50
2018-03-18T06:46:33.155Z,72.70
2018-03-18T06:49:02.267Z,72.80
2018-03-18T06:51:36.955Z,70.10
2018-03-18T06:54:12.843Z,70.00
2018-03-18T07:02:29.696Z,71.00
2018-03-18T07:04:59.199Z,69.90
2018-03-18T07:07:33.903Z,69.20
2018-03-18T07:10:09.477Z,71.70
2018-03-18T07:12:43.167Z,69.80
2018-03-18T07:15:19.173Z,66.80
2018-03-18T07:21:03.487Z,66.40
2018-03-18T07:23:40.729Z,70.40
2018-03-18T07:26:09.710Z,71.10
2018-03-18T07:31:15.553Z,69.10
2018-03-18T07:33:50.661Z,70.60
2018-03-18T07:36:18.888Z,69.30
2018-03-18T07:38:47.070Z,68.30
2018-03-18T07:41:15.241Z,67.30
2018-03-18T07:43:43.676Z,66.30
2018-03-18T07:46:11.834Z,65.10
2018-03-18T07:48:40.028Z,63.20
2018-03-18T07:51:09.194Z,63.30
2018-03-18T07:53:38.254Z,67.20
2018-03-18T07:56:06.425Z,66.50
2018-03-18T07:58:34.616Z,63.10
2018-03-18T08:01:02.788Z,63.50
2018-03-18T08:03:30.962Z,60.90
2018-03-18T08:05:59.187Z,61.70
2018-03-18T08:08:27.359Z,63.30
2018-03-18T08:10:55.533Z,61.40
2018-03-18T08:13:23.805Z,60.90
2018-03-18T08:15:52.914Z,60.30
2018-03-18T08:18:21.791Z,59.40
2018-03-18T08:20:54.226Z,56.10
2018-03-18T08:23:22.441Z,55.60
2018-03-18T08:25:52.326Z,54.30
2018-03-18T08:28:21.251Z,54.60
2018-03-18T08:30:51.180Z,55.40
2018-03-18T08:33:20.465Z,55.20
2018-03-18T08:35:48.646Z,56.30
2018-03-18T08:38:17.660Z,57.00
2018-03-18T08:40:45.891Z,57.70
2018-03-18T08:43:14.277Z,55.50
2018-03-18T08:45:42.425Z,57.20
2018-03-18T08:48:10.627Z,57.30
2018-03-18T08:50:38.805Z,56.30
2018-03-18T08:53:07.105Z,56.10
2018-03-18T08:55:35.265Z,56.10
2018-03-18T08:58:03.694Z,58.50
2018-03-18T09:00:31.894Z,61.40
2018-03-18T09:03:00.201Z,58.00
2018-03-18T09:05:31.468Z,61.40
2018-03-18T09:07:59.752Z,57.40
2018-03-18T09:10:31.504Z,56.00
2018-03-18T09:13:01.294Z,56.80
2018-03-18T09:15:29.455Z,53.40
2018-03-18T09:17:57.641Z,51.50
2018-03-18T09:20:25.799Z,50.90
2018-03-18T09:22:54.002Z,49.90
2018-03-18T09:25:22.524Z,53.30
2018-03-18T09:27:50.679Z,52.30
2018-03-18T09:30:18.841Z,53.40
2018-03-18T09:32:51.841Z,52.20
2018-03-18T09:35:20.076Z,51.80
2018-03-18T09:37:49.426Z,47.40
2018-03-18T09:40:17.588Z,48.70
2018-03-18T09:42:48.656Z,54.60
2018-03-18T09:45:17.301Z,51.60
2018-03-18T09:47:45.528Z,54.80
2018-03-18T09:50:13.690Z,56.50
2018-03-18T09:52:43.997Z,50.90
2018-03-18T09:55:12.272Z,51.20
2018-03-18T09:57:40.462Z,53.10
2018-03-18T10:00:08.645Z,56.20
2018-03-18T10:02:37.657Z,46.80
2018-03-18T10:05:05.820Z,46.70
2018-03-18T10:07:34.917Z,46.40
2018-03-18T10:10:03.083Z,51.50
2018-03-18T10:12:31.389Z,52.70
2018-03-18T10:14:59.558Z,46.90
2018-03-18T10:17:27.909Z,48.70
2018-03-18T10:19:56.077Z,48.90
2018-03-18T10:22:26.162Z,41.30
2018-03-18T10:24:54.318Z,41.30
2018-03-18T10:27:22.467Z,47.90
2018-03-18T10:29:50.640Z,45.50
2018-03-18T10:32:19.482Z,42.90
2018-03-18T10:34:47.662Z,43.40
2018-03-18T10:37:15.816Z,44.70
2018-03-18T10:39:44.003Z,47.10
2018-03-18T10:42:15.206Z,48.00
2018-03-18T10:44:43.485Z,48.30
2018-03-18T10:47:11.716Z,45.10
2018-03-18T10:49:39.865Z,45.60
2018-03-18T10:52:09.151Z,45.70
2018-03-18T10:54:37.369Z,42.70
2018-03-18T10:57:05.639Z,47.20
2018-03-18T10:59:33.815Z,47.90
2018-03-18T11:02:05.772Z,43.40
2018-03-18T11:04:34.192Z,41.70
2018-03-18T11:07:02.358Z,49.00
2018-03-18T11:09:31.355Z,44.80
2018-03-18T11:11:59.524Z,44.80
2018-03-18T11:14:28.707Z,41.10
2018-03-18T11:16:56.971Z,41.20
2018-03-18T11:19:25.128Z,40.80
2018-03-18T11:21:53.299Z,43.00
2018-03-18T11:24:21.467Z,41.60
2018-03-18T11:26:51.265Z,45.00
2018-03-18T11:29:19.446Z,45.00
2018-03-18T11:31:47.614Z,42.90
2018-03-18T11:34:24.182Z,45.40
2018-03-18T11:36:52.369Z,40.80
2018-03-18T11:39:21.516Z,37.70
2018-03-18T11:41:49.777Z,38.70
2018-03-18T11:44:18.182Z,39.10
2018-03-18T11:46:46.374Z,40.40
2018-03-18T11:49:14.544Z,39.10
2018-03-18T11:51:42.724Z,37.00
2018-03-18T11:54:12.198Z,34.70
2018-03-18T11:56:41.133Z,37.00
2018-03-18T11:59:09.900Z,36.90
2018-03-18T12:01:38.178Z,36.70
2018-03-18T12:04:06.368Z,36.60
2018-03-18T12:06:34.556Z,33.90
2018-03-18T12:09:04.199Z,35.70
2018-03-18T12:11:32.376Z,35.80
2018-03-18T12:14:00.637Z,36.90
2018-03-18T12:16:28.812Z,36.10
2018-03-18T12:18:56.980Z,39.00
2018-03-18T12:21:25.135Z,36.80
2018-03-18T12:23:53.482Z,37.40
2018-03-18T12:26:21.692Z,38.60
2018-03-18T12:28:50.171Z,35.90
2018-03-18T12:31:18.343Z,34.80
2018-03-18T12:33:47.564Z,36.70
2018-03-18T12:36:15.805Z,40.80
2018-03-18T12:38:43.968Z,33.00
2018-03-18T12:41:12.167Z,34.30
2018-03-18T12:43:40.433Z,37.20
2018-03-18T12:46:08.890Z,38.60
2018-03-18T12:48:37.058Z,36.60
2018-03-18T12:51:05.929Z,37.70
2018-03-18T12:53:41.031Z,35.30
2018-03-18T12:56:09.215Z,35.70
2018-03-18T12:58:37.956Z,39.20
2018-03-18T13:01:06.268Z,39.50
2018-03-18T13:03:34.505Z,37.90
2018-03-18T13:06:02.671Z,37.70
2018-03-18T13:08:30.840Z,37.40
2018-03-18T13:10:59.771Z,40.90
2018-03-18T13:13:27.938Z,40.70
2018-03-18T13:15:57.182Z,38.40
2018-03-18T13:18:25.346Z,40.50
2018-03-18T13:20:53.527Z,40.00
2018-03-18T13:23:22.665Z,41.20
2018-03-18T13:25:51.714Z,39.50
2018-03-18T13:28:19.902Z,39.90
2018-03-18T13:30:48.054Z,42.80
2018-03-18T13:33:16.238Z,40.40
2018-03-18T13:35:44.389Z,42.00
2018-03-18T13:38:12.564Z,42.10
2018-03-18T13:40:40.793Z,40.90
2018-03-18T13:43:10.334Z,40.90
2018-03-18T13:45:38.495Z,43.30
2018-03-18T13:48:07.441Z,43.80
2018-03-18T13:50:35.643Z,43.70
2018-03-18T13:53:05.663Z,43.70
2018-03-18T13:55:33.822Z,43.80
2018-03-18T13:58:02.751Z,43.80
2018-03-18T14:00:31.118Z,43.70
2018-03-18T14:02:59.938Z,40.20
2018-03-18T14:05:28.122Z,42.00
2018-03-18T14:07:56.403Z,39.40
2018-03-18T14:10:25.519Z,41.10
2018-03-18T14:12:53.738Z,39.50
2018-03-18T14:15:21.898Z,41.60
2018-03-18T14:17:51.038Z,39.30
2018-03-18T14:20:19.234Z,41.90
2018-03-18T14:22:47.444Z,39.00
2018-03-18T14:25:15.641Z,40.90
2018-03-18T14:27:43.821Z,41.50
2018-03-18T14:30:11.984Z,42.90
2018-03-18T14:32:43.456Z,45.50
2018-03-18T14:35:11.625Z,41.90
2018-03-18T14:37:40.632Z,45.30
2018-03-18T14:40:08.786Z,45.20
2018-03-18T14:42:36.969Z,47.30
2018-03-18T14:45:05.174Z,45.00
2018-03-18T14:47:36.619Z,46.30
2018-03-18T14:50:04.807Z,46.10
2018-03-18T14:52:33.159Z,44.40
2018-03-18T14:55:01.321Z,42.90
2018-03-18T14:57:30.488Z,45.10
2018-03-18T15:00:01.129Z,44.10
2018-03-18T15:02:30.734Z,43.90
2018-03-18T15:07:37.228Z,47.00
2018-03-18T15:10:05.435Z,45.40
2018-03-18T15:12:33.797Z,44.20
2018-03-18T15:15:01.977Z,45.10
2018-03-18T15:17:30.844Z,44.70
2018-03-18T15:20:00.933Z,46.40
2018-03-18T15:22:29.341Z,46.30
2018-03-18T15:24:57.511Z,45.90
2018-03-18T15:27:28.712Z,43.80
2018-03-18T15:29:57.051Z,46.60
2018-03-18T15:32:29.516Z,44.90
2018-03-18T15:34:57.693Z,45.80
2018-03-18T15:37:26.213Z,46.00
2018-03-18T15:39:54.414Z,47.20
2018-03-18T15:42:23.033Z,47.20
2018-03-18T15:44:51.201Z,50.40
2018-03-18T15:47:20.375Z,48.50
2018-03-18T15:49:48.712Z,50.80
2018-03-18T15:52:22.857Z,45.70
2018-03-18T15:54:51.035Z,48.00
2018-03-18T15:57:21.562Z,47.90
2018-03-18T15:59:50.175Z,49.40
2018-03-18T16:02:27.332Z,48.20
2018-03-18T16:05:00.132Z,48.90
2018-03-18T16:07:28.551Z,50.30
2018-03-18T16:09:57.842Z,49.00
2018-03-18T16:12:26.864Z,47.70
2018-03-18T16:14:55.040Z,49.30
2018-03-18T16:17:25.817Z,49.50
2018-03-18T16:19:55.255Z,48.30
2018-03-18T16:22:23.503Z,49.70
2018-03-18T16:24:52.261Z,49.10
2018-03-18T16:27:21.232Z,50.90
2018-03-18T16:30:01.468Z,50.90
2018-03-18T16:32:31.090Z,50.90
2018-03-18T16:34:59.353Z,49.40
2018-03-18T16:37:28.396Z,51.50
2018-03-18T16:39:57.474Z,52.00
2018-03-18T16:42:27.772Z,52.00
2018-03-18T16:44:55.957Z,54.30
2018-03-18T16:47:24.874Z,50.60
2018-03-18T16:49:53.115Z,50.80
2018-03-18T16:52:22.703Z,52.50
2018-03-18T16:54:52.207Z,51.40
2018-03-18T16:57:20.419Z,51.30
2018-03-18T16:59:48.817Z,49.20
2018-03-18T17:02:25.286Z,52.40
2018-03-18T17:04:54.529Z,55.20
2018-03-18T17:07:22.778Z,54.30
2018-03-18T17:09:51.805Z,53.40
2018-03-18T17:12:19.978Z,53.10
2018-03-18T17:14:48.966Z,52.50
2018-03-18T17:17:18.016Z,56.20
2018-03-18T17:19:46.395Z,55.40
2018-03-18T17:22:18.029Z,51.50
2018-03-18T17:24:48.222Z,52.70
2018-03-18T17:27:17.736Z,55.30
2018-03-18T17:29:46.103Z,55.90
2018-03-18T17:32:16.452Z,54.60
2018-03-18T17:34:44.634Z,55.00
2018-03-18T17:37:12.903Z,53.20
2018-03-18T17:39:42.745Z,51.90
2018-03-18T17:42:19.671Z,55.00
2018-03-18T17:45:00.491Z,56.50
2018-03-18T17:47:41.414Z,54.20
2018-03-18T17:53:25.978Z,58.00
2018-03-18T17:56:10.232Z,53.50
2018-03-18T17:58:38.407Z,56.80
2018-03-18T18:01:06.604Z,57.00
2018-03-18T18:03:37.280Z,57.50
2018-03-18T18:06:09.555Z,55.20
2018-03-18T18:08:47.567Z,55.20
2018-03-18T18:11:21.346Z,55.80
2018-03-18T18:13:50.512Z,55.90
2018-03-18T18:16:18.719Z,55.40
2018-03-18T18:18:47.541Z,53.80
2018-03-18T18:21:18.258Z,55.30
2018-03-18T18:23:47.310Z,55.80
2018-03-18T18:26:15.762Z,55.80
2018-03-18T18:28:46.190Z,56.70
2018-03-18T18:31:14.359Z,56.30
2018-03-18T18:33:43.781Z,56.60
2018-03-18T18:36:11.945Z,55.00
2018-03-18T18:38:41.984Z,53.60
2018-03-18T18:41:10.286Z,54.70
2018-03-18T18:43:45.148Z,55.80
2018-03-18T18:46:28.783Z,56.40
2018-03-18T18:48:57.934Z,56.00
2018-03-18T18:51:30.131Z,55.80
2018-03-18T18:54:00.233Z,54.40
2018-03-18T18:56:28.435Z,55.00
2018-03-18T18:58:56.617Z,56.50
2018-03-18T19:01:25.710Z,58.80
2018-03-18T19:03:54.944Z,53.70
2018-03-18T19:06:23.153Z,53.60
2018-03-18T19:08:51.794Z,55.80
2018-03-18T19:11:19.978Z,56.50
2018-03-18T19:13:54.956Z,56.80
2018-03-18T19:16:23.150Z,56.80
2018-03-18T19:18:51.499Z,55.80
2018-03-18T19:21:20.560Z,54.80
2018-03-18T19:23:50.682Z,52.90
2018-03-18T19:26:18.946Z,53.50
2018-03-18T19:28:47.145Z,57.30
2018-03-18T19:31:16.348Z,56.20
2018-03-18T19:33:48.491Z,56.90
2018-03-18T19:36:16.691Z,56.20
2018-03-18T19:38:48.735Z,55.70
2018-03-18T19:41:16.918Z,57.10
2018-03-18T19:43:45.942Z,54.90
2018-03-18T19:46:15.246Z,55.80
2018-03-18T19:48:43.435Z,55.00
2018-03-18T19:51:13.352Z,56.30
2018-03-18T19:53:41.879Z,56.30
2018-03-18T19:56:10.061Z,59.50
2018-03-18T19:58:38.221Z,55.20
2018-03-18T20:01:06.436Z,55.50
2018-03-18T20:03:35.602Z,57.10
2018-03-18T20:06:03.783Z,56.30
2018-03-18T20:08:31.962Z,56.00
2018-03-18T20:11:00.204Z,56.60
2018-03-18T20:13:32.773Z,55.50
2018-03-18T20:16:01.874Z,56.80
2018-03-18T20:18:30.832Z,58.80
2018-03-18T20:20:59.256Z,58.10
2018-03-18T20:23:27.721Z,57.90
2018-03-18T20:25:56.544Z,61.20
2018-03-18T20:28:24.804Z,60.30
2018-03-18T20:30:52.994Z,58.30
2018-03-18T20:33:21.856Z,58.70
2018-03-18T20:35:50.035Z,58.40
2018-03-18T20:38:40.830Z,57.00
2018-03-18T20:41:09.003Z,58.80
2018-03-18T20:43:37.305Z,57.20
2018-03-18T20:46:05.522Z,58.70
2018-03-18T20:48:33.706Z,56.30
2018-03-18T20:51:03.562Z,56.60
2018-03-18T20:53:35.120Z,57.20
2018-03-18T20:56:03.329Z,60.50
2018-03-18T20:58:31.493Z,58.50
2018-03-18T21:00:59.732Z,59.60
2018-03-18T21:03:28.001Z,58.90
2018-03-18T21:05:56.196Z,59.80
2018-03-18T21:08:24.371Z,60.10
2018-03-18T21:10:52.541Z,57.50
2018-03-18T21:13:24.178Z,57.50
2018-03-18T21:15:52.335Z,59.30
2018-03-18T21:18:24.664Z,63.00
2018-03-18T21:20:52.829Z,63.00
2018-03-18T21:23:21.985Z,63.30
2018-03-18T21:25:50.496Z,63.10
2018-03-18T21:28:18.698Z,60.50
2018-03-18T21:30:47.123Z,59.70
2018-03-18T21:33:16.146Z,60.50
2018-03-18T21:35:45.190Z,60.40
2018-03-18T21:38:13.387Z,61.60
2018-03-18T21:40:41.586Z,61.30
2018-03-18T21:43:24.383Z,62.80
2018-03-18T21:45:52.553Z,63.50
2018-03-18T21:48:20.965Z,64.10
2018-03-18T21:50:49.136Z,63.70
2018-03-18T21:53:18.399Z,65.10
2018-03-18T21:55:46.586Z,64.70
2018-03-18T21:58:14.785Z,61.40
2018-03-18T22:00:42.953Z,63.30
2018-03-18T22:03:11.243Z,62.50
2018-03-18T22:05:39.479Z,62.10
2018-03-18T22:08:08.432Z,65.90
2018-03-18T22:10:38.550Z,65.80
2018-03-18T22:13:06.778Z,64.80
2018-03-18T22:15:34.942Z,65.00
2018-03-18T22:18:04.379Z,64.90
2018-03-18T22:20:33.347Z,65.40
2018-03-18T22:23:13.264Z,66.80
2018-03-18T22:25:42.398Z,63.80
2018-03-18T22:28:13.883Z,63.00
2018-03-18T22:30:42.476Z,63.10
2018-03-18T22:33:10.654Z,63.00
2018-03-18T22:35:38.840Z,65.00
2018-03-18T22:38:10.382Z,60.90
2018-03-18T22:40:39.456Z,65.80
2018-03-18T22:43:07.630Z,66.00
2018-03-18T22:45:35.855Z,61.90
2018-03-18T22:48:04.822Z,63.90
2018-03-18T22:50:32.998Z,63.10
2018-03-18T22:53:01.165Z,62.90
2018-03-18T22:55:29.391Z,64.10
2018-03-18T22:57:57.615Z,62.20
2018-03-18T23:00:26.042Z,66.20
2018-03-18T23:02:54.473Z,64.30
2018-03-18T23:05:22.657Z,65.00
2018-03-18T23:07:50.900Z,65.00
2018-03-18T23:10:19.414Z,64.20
2018-03-18T23:12:48.565Z,63.20
2018-03-18T23:15:16.766Z,64.80
2018-03-18T23:17:44.924Z,64.80
2018-03-18T23:20:13.926Z,67.60
2018-03-18T23:22:43.129Z,68.10
2018-03-18T23:25:11.290Z,67.60
2018-03-18T23:27:39.454Z,66.60
2018-03-18T23:30:07.739Z,69.70
2018-03-18T23:32:36.840Z,66.60
2018-03-18T23:35:05.011Z,68.20
2018-03-18T23:37:33.216Z,70.20
2018-03-18T23:40:01.390Z,68.00
2018-03-18T23:42:32.900Z,66.10
2018-03-18T23:45:07.437Z,67.00
2018-03-18T23:47:35.758Z,67.10
2018-03-18T23:50:04.247Z,69.00
2018-03-18T23:52:33.771Z,66.10
2018-03-18T23:55:01.974Z,66.40
2018-03-18T23:57:30.163Z,69.00
2018-03-18T23:59:58.402Z,68.70
